Flight Track Log - Related Links

Times and Time Zones

All times are in EDT time to prevent confusion due to time zone crossing. See the N205BN flight status page for this flight to view local times or setup timezone preferences in your user account.

Time Position Orientation Groundspeed Altitude Reporting Facility
EDT Latitude Longitude Course Direction KTS MPH feet Rate Location/Type
Tue 10:11:32 AM 31.7250 -90.9469 65° Northeast 271 312 21,000  Level Memphis Center
Tue 10:12:34 AM 31.7569 -91.1094 283° West 240 276 8,000 -5,760 Descending Memphis Center
Tue 10:13:00 AM 31.6170 -91.2852 72° East  Level FlightAware Approximate
Tue 10:13:37 AM 31.7808 -91.0275 71° East 261 300 9,000  Level Memphis Center
Tue 10:14:00 AM 31.6423 -91.1943 72° East  Level FlightAware Approximate
Tue 10:14:39 AM 31.8019 -90.9481 73° East 263 303 11,000  Level Memphis Center
Tue 10:15:00 AM 31.6643 -91.0952 77° East  Level FlightAware Approximate
Tue 10:15:41 AM 31.8211 -90.8733 73° East 253 291 12,900  Level Memphis Center
Tue 10:16:00 AM 31.6969 -91.0077 65° Northeast  Level FlightAware Approximate
Tue 10:16:43 AM 31.8458 -90.7906 71° East 236 272 14,800  Level Memphis Center
Tue 10:17:45 AM 31.8658 -90.7172 72° East 236 272 16,300 1,452 Climbing Memphis Center
Tue 10:18:47 AM 31.8864 -90.6444 72° East 236 272 17,800 1,258 Climbing Memphis Center
Tue 10:19:49 AM 31.9072 -90.5694 72° East 238 274 18,900 1,065 Climbing Memphis Center
Tue 10:20:51 AM 31.9308 -90.4881 71° East 258 297 20,000 1,016 Climbing Memphis Center
Tue 10:21:53 AM 31.9583 -90.3867 72° East 271 312 21,000 484 Climbing Memphis Center
Tue 10:22:55 AM 31.9861 -90.2903 71° East 298 343 21,000  Level Memphis Center
Tue 10:23:57 AM 32.0139 -90.1875 72° East 314 361 21,000  Level Memphis Center
Tue 10:24:59 AM 32.0422 -90.0811 73° East 328 377 21,000  Level Memphis Center
Tue 10:26:01 AM 32.0722 -89.9708 72° East 347 399 21,000  Level Memphis Center
Tue 10:27:04 AM 32.1067 -89.8403 73° East 349 402 21,000  Level Memphis Center
Tue 10:28:06 AM 32.1361 -89.7311 72° East 349 402 21,000  Level Memphis Center
Tue 10:29:08 AM 32.1656 -89.6214 72° East 351 404 21,000  Level Memphis Center
Tue 10:30:10 AM 32.1942 -89.5122 73° East 353 406 21,000  Level Memphis Center
Tue 10:31:12 AM 32.2283 -89.3825 73° East 353 406 21,000  Level Memphis Center
Tue 10:32:14 AM 32.2564 -89.2731 73° East 353 406 21,000  Level Memphis Center
Tue 10:33:16 AM 32.2853 -89.1650 72° East 352 405 21,000  Level Memphis Center
Tue 10:34:18 AM 32.3131 -89.0575 73° East 351 404 21,000  Level Memphis Center
Tue 10:35:20 AM 32.3406 -88.9508 73° East 347 399 21,000  Level Memphis Center
Tue 10:36:22 AM 32.3742 -88.8244 72° East 344 396 21,000  Level Memphis Center
Tue 10:37:24 AM 32.4267 -88.7367 55° Northeast 335 386 21,000  Level Memphis Center
Tue 10:38:26 AM 32.4872 -88.6556 48° Northeast 334 384 21,000  Level Memphis Center
Tue 10:39:29 AM 32.5453 -88.5719 51° Northeast 333 383 21,000  Level Memphis Center
Tue 10:40:31 AM 32.6036 -88.4900 50° Northeast 332 382 21,000 -532 Level Memphis Center
Tue 10:41:33 AM 32.6753 -88.3900 50° Northeast 332 382 19,900 -1,065 Descending Memphis Center
Tue 10:42:35 AM 32.7322 -88.3081 50° Northeast 331 381 18,800 -1,016 Descending Memphis Center
Tue 10:43:37 AM 32.7828 -88.2394 49° Northeast 288 331 17,800 -968 Descending Memphis Center
Tue 10:44:39 AM 32.8294 -88.1739 50° Northeast 268 308 16,800 -968 Descending Memphis Center
Tue 10:45:41 AM 32.8753 -88.1072 51° Northeast 264 304 15,800 -1,065 Descending Memphis Center
Tue 10:46:43 AM 32.9297 -88.0303 50° Northeast 259 298 14,600 -1,065 Descending Memphis Center
Tue 10:47:45 AM 32.9725 -87.9708 49° Northeast 245 282 13,600 -919 Descending Memphis Center
Tue 10:48:47 AM 33.0119 -87.9144 50° Northeast 243 280 12,700 -1,016 Descending Memphis Center
Tue 10:49:49 AM 33.0650 -87.8394 50° Northeast 244 281 11,500 -1,065 Descending Memphis Center
Tue 10:50:51 AM 33.1083 -87.7736 52° Northeast 247 284 10,500 -968 Descending Memphis Center
Tue 10:51:53 AM 33.1514 -87.7092 51° Northeast 251 289 9,500 -960 Descending Memphis Center
Tue 10:52:56 AM 33.1650 -87.7536 290° West 203 234 8,500 -960 Descending Memphis Center
Tue 10:53:58 AM 33.1194 -87.7933 216° Southwest 200 230 7,500 -774 Descending Memphis Center
Tue 10:55:00 AM 33.0728 -87.7781 165° South 213 245 6,900 -774 Descending Memphis Center
Tue 10:56:02 AM 33.1061 -87.7203 55° Northeast 220 253 5,900 -919 Descending Memphis Center
Tue 10:57:04 AM 33.1522 -87.6767 38° Northeast 219 252 5,000 -435 Descending Memphis Center
Tue 10:58:06 AM 33.1942 -87.6636 15° North 210 242 5,000 -91 Level Memphis Center
Tue 11:00:22 AM 33.1122 -87.7464 220° Southwest 166 191 4,700 -365 Descending Atlanta Center
Tue 11:01:23 AM 33.0989 -87.7036 110° East 218 251 3,800 -936 Descending Atlanta Center
Tue 11:02:11 AM 33.1414 -87.6831 22° Northeast 209 241 3,000 -440 Descending Atlanta Center
Tue 11:03:12 AM 33.1800 -87.6500 36° Northeast 165 190 3,000 -496 Level Atlanta Center
Tue 11:04:12 AM 33.2100 -87.6164 43° Northeast 138 159 2,000 -446 Descending Atlanta Center
Tue 11:05:13 AM 33.2428 -87.5706 49° Northeast 199 229 2,100 738 Climbing Atlanta Center
Tue 11:06:14 AM 33.2339 -87.5108 100° East 245 282 3,500 893 Climbing Atlanta Center
Tue 11:07:14 AM 33.1814 -87.5236 192° South 209 241 3,900 198 Climbing Atlanta Center
Tue 11:08:15 AM 33.1325 -87.5564 209° Southwest 199 229 3,900 49 Level Atlanta Center
Tue 11:09:16 AM 33.0875 -87.5992 219° Southwest 197 227 4,000 47 Climbing Atlanta Center
Tue 11:10:22 AM 33.0422 -87.6492 223° Southwest 196 226 4,000 -47 Level Atlanta Center
Tue 11:11:23 AM 33.0175 -87.7028 241° Southwest 177 204 3,900 -52 Descending Atlanta Center
Tue 11:12:17 AM 33.0333 -87.7381 298° West 146 168 3,900 -446 Level Atlanta Center
Tue 11:13:24 AM 33.0831 -87.7453 353° North 195 224 3,000 -761 Descending Atlanta Center
Tue 11:14:31 AM 33.1239 -87.7097 36° Northeast 169 194 2,200 -709 Descending Atlanta Center
Tue 11:15:31 AM 33.1519 -87.6786 43° Northeast 136 157 1,500 -446 Descending Atlanta Center
Tue 11:16:32 AM 33.1711 -87.6594 40° Northeast 126 145 1,300 -197 Descending Atlanta Center

Login

Don't have an account? Register now (free) for customized features, flight alerts, and more!